Time;durP1;ratioP1;P1;durP2;ratioP2;P2;SDS_P1;SDS_P2;PMS_P1;PMS_P2;Temp;Humidity;BMP_temperature;BMP_pressure;BME280_temperature;BME280_humidity;BME280_pressure;Samples;Min_cycle;Max_cycle;Signal;HPM_P1;HPM_P2
2022/11/13 04:03:52;;;;;;;57.63;27.80;;;9.00;99.90;;;;;;4804448;28;20615;-85
2022/11/13 04:29:44;;;;;;;53.00;24.53;;;9.00;99.90;;;;;;4696633;29;20362;-87
2022/11/13 04:59:39;;;;;;;52.27;23.90;;;8.90;99.90;;;;;;4546407;30;20348;-87
2022/11/13 05:40:51;;;;;;;51.80;24.33;;;8.80;99.90;;;;;;4759617;29;20209;-88
2022/11/13 06:06:13;;;;;;;51.27;23.00;;;8.90;99.90;;;;;;4758603;29;20412;-89
2022/11/13 06:31:14;;;;;;;50.93;23.10;;;9.00;99.90;;;;;;5327727;23;22048;-88
2022/11/13 06:51:28;;;;;;;52.23;24.43;;;9.10;99.90;;;;;;4721233;29;20590;-87
2022/11/13 07:27:19;;;;;;;44.17;22.63;;;9.30;99.90;;;;;;4713329;29;20740;-86
2022/11/13 07:57:29;;;;;;;41.70;22.57;;;9.30;99.90;;;;;;4808219;28;20296;-87
2022/11/13 08:23:11;;;;;;;31.80;15.33;;;9.30;99.90;;;;;;4778404;29;20219;-86
2022/11/13 08:27:31;;;;;;;30.60;16.00;;;9.30;99.90;;;;;;4697351;29;20541;-89
2022/11/13 09:03:36;;;;;;;17.97;11.13;;;9.90;99.90;;;;;;4695474;29;20325;-86
2022/11/13 09:28:50;;;;;;;12.73;8.33;;;9.90;99.90;;;;;;4664918;30;20240;-86
2022/11/13 09:49:16;;;;;;;12.53;8.17;;;10.20;99.90;;;;;;4606956;30;20512;-88
2022/11/13 10:14:34;;;;;;;16.07;9.37;;;10.10;99.90;;;;;;4674014;29;20271;-85
2022/11/13 10:34:19;;;;;;;17.10;10.80;;;10.30;99.90;;;;;;4549283;30;20428;-87
2022/11/13 10:59:46;;;;;;;23.73;13.87;;;10.10;99.90;;;;;;4578705;30;20507;-88
2022/11/13 11:25:43;;;;;;;18.27;11.33;;;10.00;99.90;;;;;;4629700;29;20259;-86
2022/11/13 12:01:17;;;;;;;19.20;12.43;;;10.60;99.90;;;;;;4887944;28;21143;-87
2022/11/13 12:26:03;;;;;;;21.10;13.30;;;10.60;99.90;;;;;;4705544;29;20538;-87
2022/11/13 12:52:00;;;;;;;19.40;12.70;;;10.70;99.90;;;;;;4580179;30;20354;-87
2022/11/13 12:56:28;;;;;;;21.80;12.80;;;10.80;99.90;;;;;;4505003;31;20796;-89
2022/11/13 13:32:12;;;;;;;17.13;11.83;;;10.60;99.90;;;;;;4625699;30;20842;-86
2022/11/13 14:18:13;;;;;;;24.10;15.33;;;10.00;99.90;;;;;;4841070;29;20259;-87
2022/11/13 14:48:38;;;;;;;31.07;17.23;;;9.80;99.90;;;;;;4698556;30;20915;-86
2022/11/13 15:08:48;;;;;;;29.43;19.13;;;9.60;99.90;;;;;;4635649;30;20226;-87
2022/11/13 15:34:18;;;;;;;29.47;17.00;;;9.60;99.90;;;;;;4610044;30;20374;-85
2022/11/13 15:54:29;;;;;;;29.17;18.43;;;9.60;99.90;;;;;;4575955;30;20347;-86
2022/11/13 16:19:43;;;;;;;35.53;19.43;;;9.60;99.90;;;;;;4579166;30;20426;-86
2022/11/13 17:10:19;;;;;;;45.43;25.80;;;9.60;99.90;;;;;;4493381;31;20242;-87
2022/11/13 17:35:39;;;;;;;52.13;28.70;;;9.70;99.90;;;;;;4656616;30;20207;-86
2022/11/13 18:00:50;;;;;;;55.13;30.67;;;9.50;99.90;;;;;;4514436;31;20529;-86
2022/11/13 18:11:16;;;;;;;54.73;31.40;;;9.50;99.90;;;;;;5833056;23;20331;-87
2022/11/13 18:36:23;;;;;;;48.23;25.37;;;9.40;99.90;;;;;;4729834;29;20629;-83
2022/11/13 19:12:13;;;;;;;50.47;24.03;;;9.20;99.90;;;;;;4829376;29;20236;-85
2022/11/13 19:42:35;;;;;;;50.17;23.50;;;8.90;99.90;;;;;;4654179;30;20215;-85
2022/11/13 20:02:42;;;;;;;40.47;21.00;;;8.90;99.90;;;;;;4613296;30;20308;-84
2022/11/13 20:33:17;;;;;;;34.17;17.23;;;8.80;99.90;;;;;;4597552;30;20314;-86
2022/11/13 20:53:18;;;;;;;36.87;17.90;;;8.70;99.90;;;;;;4644305;30;20446;-85
2022/11/13 21:23:43;;;;;;;30.60;15.87;;;8.60;99.90;;;;;;4632206;30;20230;-86
2022/11/13 21:44:19;;;;;;;22.80;13.77;;;8.50;99.90;;;;;;4673704;30;20213;-83
2022/11/13 22:19:53;;;;;;;35.50;18.37;;;8.50;99.90;;;;;;4827167;29;20254;-86
2022/11/13 22:44:52;;;;;;;40.67;20.90;;;8.50;99.90;;;;;;4811339;29;20237;-84
2022/11/13 23:05:09;;;;;;;46.50;21.27;;;8.50;99.90;;;;;;4774068;29;20444;-84
2022/11/13 23:30:46;;;;;;;36.17;19.77;;;8.40;99.90;;;;;;4766248;29;20771;-84
